Time;durP1;ratioP1;P1;durP2;ratioP2;P2;SDS_P1;SDS_P2;PMS_P1;PMS_P2;Temp;Humidity;BMP_temperature;BMP_pressure;BME280_temperature;BME280_humidity;BME280_pressure;Samples;Min_cycle;Max_cycle;Signal;HPM_P1;HPM_P2
2023/01/15 00:00:57;;;;;;;9.70;0.95;;;;;;;;;;5013625;28;20017;-80
2023/01/15 00:03:23;;;;;;;3.67;0.17;;;7.50;99.90;;;;;;5013819;28;20041;-80
2023/01/15 00:05:49;;;;;;;2.47;0.10;;;;;;;;;;5015744;28;20034;-81
2023/01/15 00:08:14;;;;;;;3.33;0.00;;;7.50;99.90;;;;;;5018498;28;20092;-80
2023/01/15 00:10:40;;;;;;;4.22;0.30;;;;;;;;;;5018463;28;20477;-80
2023/01/15 00:13:06;;;;;;;6.30;0.30;;;7.50;99.90;;;;;;5017181;28;20459;-81
2023/01/15 00:15:32;;;;;;;5.93;0.00;;;;;;;;;;5017154;28;20401;-80
2023/01/15 00:17:58;;;;;;;7.85;0.45;;;7.50;99.90;;;;;;5016961;28;20073;-80
2023/01/15 00:20:23;;;;;;;9.43;0.10;;;7.50;99.90;;;;;;5018680;28;20530;-80
2023/01/15 00:22:49;;;;;;;12.45;0.50;;;7.50;99.90;;;;;;5017089;28;20048;-80
2023/01/15 00:27:58;;;;;;;6.20;0.40;;;7.60;99.90;;;;;;5018583;28;20487;-80
2023/01/15 00:30:24;;;;;;;5.18;0.40;;;7.50;99.90;;;;;;5017962;28;20030;-80
2023/01/15 00:32:50;;;;;;;5.90;0.25;;;7.50;99.90;;;;;;5018855;28;20025;-80
2023/01/15 00:35:20;;;;;;;10.15;0.52;;;7.50;99.90;;;;;;5018295;28;20092;-80
2023/01/15 00:37:46;;;;;;;8.25;0.63;;;7.50;99.90;;;;;;5018153;28;20022;-80
2023/01/15 00:40:14;;;;;;;5.22;0.13;;;7.50;99.90;;;;;;5016553;28;20048;-80
2023/01/15 00:42:40;;;;;;;8.20;0.20;;;7.50;99.90;;;;;;5018041;28;20093;-81
2023/01/15 00:45:10;;;;;;;4.32;0.00;;;;;;;;;;5016356;28;20120;-80
2023/01/15 00:47:40;;;;;;;9.88;0.45;;;7.50;99.90;;;;;;5018243;28;20036;-80
2023/01/15 00:50:10;;;;;;;3.70;0.13;;;7.50;99.90;;;;;;5016125;28;20017;-80
2023/01/15 00:52:37;;;;;;;9.32;0.43;;;7.50;99.90;;;;;;5016675;28;20022;-80
2023/01/15 00:55:03;;;;;;;7.07;0.98;;;7.50;99.90;;;;;;5015342;28;20056;-80
2023/01/15 00:57:28;;;;;;;6.70;0.32;;;7.40;99.90;;;;;;5016158;28;20400;-80
2023/01/15 00:59:54;;;;;;;4.40;0.22;;;7.40;99.90;;;;;;5016693;28;20018;-80
2023/01/15 01:02:19;;;;;;;8.02;0.68;;;7.40;99.90;;;;;;5015343;28;20439;-80
2023/01/15 01:04:45;;;;;;;11.80;1.55;;;7.30;99.90;;;;;;5015395;28;20033;-80
2023/01/15 01:07:11;;;;;;;6.85;0.10;;;7.40;99.90;;;;;;5015015;28;20036;-80
2023/01/15 01:09:36;;;;;;;7.13;1.27;;;7.30;99.90;;;;;;5014263;28;20117;-80
2023/01/15 01:12:02;;;;;;;8.68;0.13;;;7.40;99.90;;;;;;5014993;28;20065;-80
2023/01/15 01:14:28;;;;;;;6.93;0.08;;;9.20;99.90;;;;;;5016880;28;20115;-80
2023/01/15 01:16:53;;;;;;;7.78;1.20;;;7.30;99.90;;;;;;5015383;28;20066;-80
2023/01/15 01:19:21;;;;;;;7.25;0.08;;;7.30;99.90;;;;;;5016255;28;20405;-80
2023/01/15 01:21:48;;;;;;;3.53;0.13;;;7.30;99.90;;;;;;5015363;28;20547;-80
2023/01/15 01:24:17;;;;;;;7.10;1.05;;;7.30;99.90;;;;;;5015874;28;20018;-80
2023/01/15 01:26:44;;;;;;;7.43;0.38;;;7.30;99.90;;;;;;5015005;28;20022;-80
2023/01/15 01:29:19;;;;;;;6.85;1.23;;;7.30;99.90;;;;;;5014323;28;20125;-81
2023/01/15 01:31:45;;;;;;;7.20;0.35;;;7.30;99.90;;;;;;5015072;28;20109;-81
2023/01/15 01:34:13;;;;;;;7.07;0.65;;;7.20;99.90;;;;;;5017335;28;20358;-82
2023/01/15 01:36:41;;;;;;;9.95;1.48;;;7.20;99.90;;;;;;5016616;28;20010;-81
2023/01/15 01:39:15;;;;;;;10.07;0.53;;;7.10;99.90;;;;;;5017244;28;20021;-80
2023/01/15 01:41:42;;;;;;;6.78;0.20;;;;;;;;;;5016493;28;20318;-79
2023/01/15 01:44:33;;;;;;;7.13;0.63;;;7.20;99.90;;;;;;5014999;28;20030;-78
2023/01/15 01:47:14;;;;;;;7.63;0.70;;;7.20;99.90;;;;;;5016353;28;20103;-81
2023/01/15 01:49:41;;;;;;;6.47;0.38;;;7.20;99.90;;;;;;5016818;28;20116;-80
2023/01/15 01:52:14;;;;;;;11.57;0.65;;;7.10;99.90;;;;;;5019070;28;20029;-84
2023/01/15 01:54:45;;;;;;;6.30;0.05;;;7.10;99.90;;;;;;5028539;28;20432;-84
2023/01/15 01:57:11;;;;;;;8.85;0.28;;;;;;;;;;5034976;28;20077;-86
2023/01/15 01:59:40;;;;;;;4.82;0.38;;;7.10;99.90;;;;;;5025987;28;20054;-80
2023/01/15 02:02:06;;;;;;;7.63;0.20;;;;;;;;;;5027435;28;20022;-84
2023/01/15 02:04:32;;;;;;;3.97;0.15;;;7.00;99.90;;;;;;5025751;28;20037;-84
2023/01/15 02:07:01;;;;;;;7.63;0.50;;;;;;;;;;5033929;28;20026;-83
2023/01/15 02:09:28;;;;;;;8.85;0.63;;;;;;;;;;5029049;28;20037;-84
2023/01/15 02:11:57;;;;;;;21.45;1.45;;;7.00;99.90;;;;;;5030033;28;20041;-84
2023/01/15 02:15:00;;;;;;;3.83;0.30;;;7.00;99.90;;;;;;5033263;28;20046;-83
2023/01/15 02:17:40;;;;;;;6.93;0.75;;;7.00;99.90;;;;;;4994187;28;20044;-85
2023/01/15 02:20:16;;;;;;;9.27;0.88;;;7.00;99.90;;;;;;5037959;28;20014;-82
2023/01/15 02:23:08;;;;;;;1.83;0.10;;;6.90;99.90;;;;;;5037099;28;20050;-86
2023/01/15 02:25:53;;;;;;;8.23;0.55;;;;;;;;;;5038261;28;20022;-83
2023/01/15 02:28:28;;;;;;;11.20;1.10;;;6.90;99.90;;;;;;5035550;28;20038;-84
2023/01/15 02:31:18;;;;;;;7.40;0.15;;;6.90;99.90;;;;;;5037523;28;20018;-84
2023/01/15 02:33:52;;;;;;;9.38;0.57;;;6.90;99.90;;;;;;5037387;28;20022;-83
2023/01/15 02:36:22;;;;;;;12.35;0.82;;;6.90;99.90;;;;;;5036030;28;20030;-84
2023/01/15 02:38:50;;;;;;;9.65;0.82;;;6.90;99.90;;;;;;5032814;28;20397;-84
2023/01/15 02:41:19;;;;;;;8.15;0.55;;;6.90;99.90;;;;;;5030826;28;20026;-86
2023/01/15 02:43:51;;;;;;;9.90;0.30;;;6.90;99.90;;;;;;5029695;28;20465;-85
2023/01/15 02:46:20;;;;;;;11.27;0.75;;;6.90;99.90;;;;;;5038389;28;20016;-85
2023/01/15 02:48:55;;;;;;;8.38;0.45;;;;;;;;;;5038437;28;20013;-85
2023/01/15 02:51:26;;;;;;;9.35;1.00;;;6.90;99.90;;;;;;5038401;28;20018;-84
2023/01/15 02:53:56;;;;;;;6.75;0.90;;;7.00;99.90;;;;;;5038870;28;20038;-86
2023/01/15 02:56:35;;;;;;;2.80;0.10;;;6.90;99.90;;;;;;5038505;28;20025;-85
2023/01/15 02:59:04;;;;;;;;;;;6.90;99.90;;;;;;5038357;28;20009;-85
2023/01/15 03:01:49;;;;;;;4.28;0.52;;;6.90;99.90;;;;;;5038092;28;19897;-87
2023/01/15 03:04:21;;;;;;;6.05;0.52;;;6.90;99.90;;;;;;5038476;28;20105;-86
2023/01/15 03:06:58;;;;;;;3.85;0.10;;;;;;;;;;5038157;28;20030;-85
2023/01/15 03:09:24;;;;;;;8.98;0.40;;;;;;;;;;5037373;28;20097;-84
2023/01/15 03:12:05;;;;;;;4.53;0.03;;;6.80;99.90;;;;;;5029271;28;20038;-84
2023/01/15 03:15:06;;;;;;;16.40;1.00;;;6.80;99.90;;;;;;5025189;28;20026;-83
2023/01/15 03:17:42;;;;;;;7.50;0.28;;;6.80;99.90;;;;;;5035411;28;20030;-83
2023/01/15 03:20:09;;;;;;;5.53;0.47;;;;;;;;;;5035096;28;20034;-83
2023/01/15 03:22:39;;;;;;;8.20;0.17;;;6.90;99.90;;;;;;5027151;28;20062;-84
2023/01/15 03:25:32;;;;;;;9.57;1.08;;;6.80;99.90;;;;;;5029476;28;20512;-84
2023/01/15 03:28:01;;;;;;;8.05;0.70;;;6.80;99.90;;;;;;5037329;28;20078;-83
2023/01/15 03:30:27;;;;;;;4.28;0.00;;;;;;;;;;5036906;28;20030;-83
2023/01/15 03:32:53;;;;;;;8.73;0.20;;;6.80;99.90;;;;;;5035751;28;20070;-84
2023/01/15 03:36:01;;;;;;;5.38;0.05;;;6.70;99.90;;;;;;5034814;28;20033;-83
2023/01/15 03:38:32;;;;;;;4.35;0.00;;;6.60;99.90;;;;;;4976083;28;20026;-83
2023/01/15 03:41:24;;;;;;;5.05;0.20;;;6.50;99.90;;;;;;4970693;28;20027;-84
2023/01/15 03:43:50;;;;;;;16.35;1.48;;;;;;;;;;5027286;28;20400;-83
2023/01/15 03:46:37;;;;;;;6.25;0.10;;;6.40;99.90;;;;;;5028734;28;20068;-84
2023/01/15 03:49:22;;;;;;;7.68;0.10;;;;;;;;;;5031750;28;20118;-85
2023/01/15 03:52:15;;;;;;;4.90;0.10;;;;;;;;;;5037883;28;20034;-84
2023/01/15 03:54:41;;;;;;;4.72;0.15;;;;;;;;;;5010025;28;20033;-84
2023/01/15 03:57:22;;;;;;;5.40;0.30;;;6.50;99.90;;;;;;5041024;28;20021;-86
2023/01/15 09:13:36;;;;;;;4.45;0.00;;;6.70;99.90;;;;;;5040120;28;20057;-81
2023/01/15 09:16:04;;;;;;;8.75;1.15;;;6.80;99.90;;;;;;5036881;28;20030;-80
2023/01/15 09:18:30;;;;;;;3.22;0.50;;;6.80;99.90;;;;;;5020376;28;20464;-80
2023/01/15 09:20:59;;;;;;;3.05;0.25;;;8.70;99.90;;;;;;5038379;28;20021;-80
2023/01/15 09:23:24;;;;;;;20.77;0.60;;;9.30;99.90;;;;;;5038731;28;20021;-80
2023/01/15 09:25:55;;;;;;;4.68;0.08;;;6.90;99.90;;;;;;5023641;28;20519;-80
2023/01/15 09:28:20;;;;;;;5.13;0.38;;;6.90;99.90;;;;;;5021828;28;20040;-80
2023/01/15 09:30:46;;;;;;;4.28;0.10;;;6.90;99.90;;;;;;5023539;28;20021;-81
2023/01/15 09:33:12;;;;;;;6.63;0.28;;;8.00;99.90;;;;;;5020329;28;20033;-79
2023/01/15 09:35:38;;;;;;;5.53;0.00;;;6.90;99.90;;;;;;5036151;28;20104;-78
2023/01/15 09:38:03;;;;;;;6.60;0.80;;;6.80;99.90;;;;;;5036494;28;20028;-78
2023/01/15 09:40:57;;;;;;;8.35;0.30;;;9.60;99.90;;;;;;5018457;28;20022;-78
2023/01/15 09:43:37;;;;;;;5.38;0.20;;;6.80;99.90;;;;;;5007031;28;20034;-78
2023/01/15 09:46:16;;;;;;;6.70;0.45;;;6.90;99.90;;;;;;5018675;28;20484;-79
2023/01/15 09:48:50;;;;;;;;;;;6.80;99.90;;;;;;5019013;28;20056;-79
2023/01/15 09:51:19;;;;;;;11.23;0.85;;;6.90;99.90;;;;;;5018274;28;19955;-80
2023/01/15 09:54:15;;;;;;;2.60;0.00;;;7.00;99.90;;;;;;5035631;28;20393;-79
2023/01/15 09:56:41;;;;;;;9.50;0.95;;;7.00;99.90;;;;;;5035679;28;20487;-79
2023/01/15 09:59:31;;;;;;;13.05;1.00;;;7.00;99.90;;;;;;5036066;28;20014;-79
2023/01/15 10:01:59;;;;;;;3.97;0.00;;;7.00;99.90;;;;;;5023698;28;20046;-79
2023/01/15 10:04:27;;;;;;;8.30;0.85;;;7.10;99.90;;;;;;5017981;28;20021;-79
2023/01/15 10:07:07;;;;;;;7.30;0.47;;;7.10;99.90;;;;;;5018603;28;20057;-79
2023/01/15 10:09:37;;;;;;;9.95;0.13;;;7.20;99.90;;;;;;5018820;28;20029;-80
2023/01/15 10:12:38;;;;;;;5.50;0.20;;;7.30;99.90;;;;;;5035373;28;20105;-79
2023/01/15 10:15:31;;;;;;;6.05;0.10;;;7.40;99.90;;;;;;5036621;28;20028;-79
2023/01/15 10:17:58;;;;;;;6.72;0.82;;;7.50;99.90;;;;;;5017882;28;20029;-79
2023/01/15 10:20:35;;;;;;;2.22;0.10;;;7.70;99.90;;;;;;5035020;28;20025;-78
2023/01/15 10:23:13;;;;;;;3.35;0.65;;;;;;;;;;5017478;28;20075;-77
2023/01/15 10:25:53;;;;;;;12.05;0.40;;;7.70;99.90;;;;;;5017453;28;20029;-78
2023/01/15 10:28:25;;;;;;;2.67;0.10;;;7.80;99.90;;;;;;5035668;28;20083;-77
2023/01/15 10:30:53;;;;;;;11.13;1.00;;;7.90;99.90;;;;;;5021162;28;20026;-79
2023/01/15 10:33:25;;;;;;;4.40;0.65;;;8.90;99.90;;;;;;5022047;28;20041;-80
2023/01/15 10:36:01;;;;;;;4.25;0.85;;;7.90;99.90;;;;;;5023307;28;20025;-80
2023/01/15 10:38:45;;;;;;;6.00;0.00;;;7.80;99.90;;;;;;5040423;28;20032;-79
2023/01/15 10:41:44;;;;;;;4.55;0.22;;;7.60;99.90;;;;;;5020881;28;20507;-79
2023/01/15 10:44:41;;;;;;;6.50;0.00;;;7.60;99.90;;;;;;5020944;28;20046;-79
2023/01/15 10:47:12;;;;;;;8.07;0.52;;;7.60;99.90;;;;;;5022835;28;20060;-79
2023/01/15 10:49:40;;;;;;;12.90;0.28;;;8.00;99.90;;;;;;5040735;28;20017;-80
2023/01/15 10:52:15;;;;;;;6.05;0.38;;;7.60;99.90;;;;;;5022503;28;20071;-80
2023/01/15 10:54:47;;;;;;;6.82;0.63;;;7.50;99.90;;;;;;5022363;28;20086;-80
2023/01/15 10:57:38;;;;;;;14.60;1.00;;;7.50;99.90;;;;;;5022415;28;20018;-79
2023/01/15 11:00:04;;;;;;;7.45;0.80;;;7.40;99.90;;;;;;5009863;28;20402;-80
2023/01/15 11:02:42;;;;;;;3.13;0.55;;;7.40;99.90;;;;;;5037773;28;20021;-80
2023/01/15 11:05:18;;;;;;;6.72;0.22;;;7.40;99.90;;;;;;5023662;28;20030;-80
2023/01/15 11:07:49;;;;;;;5.20;0.20;;;7.50;99.90;;;;;;5019651;28;20022;-80
2023/01/15 11:10:19;;;;;;;9.38;1.17;;;7.50;99.90;;;;;;5036550;28;20060;-78
2023/01/15 11:21:41;;;;;;;6.57;0.75;;;7.30;99.90;;;;;;4991412;28;20041;-79
2023/01/15 11:24:14;;;;;;;8.18;0.00;;;7.20;99.90;;;;;;5036287;28;20018;-79
2023/01/15 11:26:39;;;;;;;5.03;0.50;;;7.20;99.90;;;;;;5018204;28;20021;-78
2023/01/15 11:29:15;;;;;;;4.55;0.20;;;7.20;99.90;;;;;;5017338;28;20064;-78
2023/01/15 11:31:41;;;;;;;7.70;0.52;;;7.20;99.90;;;;;;5034407;28;20052;-78
2023/01/15 11:34:20;;;;;;;6.30;0.45;;;7.20;99.90;;;;;;5035432;28;20473;-78
2023/01/15 11:36:46;;;;;;;6.63;0.20;;;7.30;99.90;;;;;;5017545;28;20104;-80
2023/01/15 11:39:26;;;;;;;1.65;0.10;;;7.30;99.90;;;;;;5036103;28;20025;-79
2023/01/15 11:50:59;;;;;;;6.32;0.70;;;7.20;99.90;;;;;;5035112;28;20037;-78
2023/01/15 11:53:28;;;;;;;4.72;0.15;;;7.30;99.90;;;;;;5017920;28;20504;-79
2023/01/15 11:56:00;;;;;;;11.85;0.25;;;7.20;99.90;;;;;;5017112;28;20108;-79
2023/01/15 11:58:52;;;;;;;4.03;0.00;;;7.30;99.90;;;;;;5035442;28;20028;-80
2023/01/15 12:01:34;;;;;;;5.30;0.35;;;7.20;99.90;;;;;;5018067;28;20045;-79
2023/01/15 12:04:05;;;;;;;4.68;0.68;;;7.20;99.90;;;;;;5021324;28;20025;-80
2023/01/15 12:06:35;;;;;;;5.90;0.03;;;7.30;99.90;;;;;;5021023;28;20014;-78
2023/01/15 12:09:28;;;;;;;2.53;0.00;;;7.20;99.90;;;;;;5021770;28;20029;-78
2023/01/15 12:12:12;;;;;;;3.10;0.20;;;7.30;99.90;;;;;;5023371;28;20477;-78
2023/01/15 12:14:56;;;;;;;6.57;0.45;;;7.20;99.90;;;;;;5038483;28;20037;-77
2023/01/15 12:17:37;;;;;;;7.63;0.32;;;7.10;99.90;;;;;;5038487;28;20047;-78
2023/01/15 12:20:30;;;;;;;10.32;0.00;;;7.00;99.90;;;;;;5037294;28;20396;-77
2023/01/15 12:23:25;;;;;;;0.88;0.00;;;6.60;99.90;;;;;;5037883;28;20029;-78
2023/01/15 12:26:18;;;;;;;8.43;0.43;;;6.50;99.90;;;;;;5019779;28;20079;-78
2023/01/15 12:29:01;;;;;;;3.85;0.00;;;6.40;99.90;;;;;;5019254;28;20052;-77
2023/01/15 12:31:34;;;;;;;3.75;0.22;;;6.30;99.90;;;;;;5020339;28;20084;-75
2023/01/15 12:34:31;;;;;;;17.17;1.55;;;6.20;99.90;;;;;;5037933;28;20445;-74
2023/01/15 12:37:01;;;;;;;7.05;0.10;;;6.20;99.90;;;;;;5037932;28;20043;-74
2023/01/15 12:39:46;;;;;;;7.78;0.73;;;6.20;99.90;;;;;;5037094;28;20021;-75
2023/01/15 12:45:11;;;;;;;4.72;0.63;;;6.10;99.90;;;;;;5037685;28;20031;-75
2023/01/15 12:47:58;;;;;;;9.60;0.52;;;6.10;99.90;;;;;;5019018;28;20025;-75
2023/01/15 12:50:27;;;;;;;9.40;0.45;;;6.10;99.90;;;;;;5036525;28;20021;-76
2023/01/15 12:53:05;;;;;;;6.00;0.08;;;6.20;99.90;;;;;;5037332;28;20025;-75
2023/01/15 12:55:36;;;;;;;11.68;2.40;;;6.20;99.90;;;;;;5037340;28;20028;-75
2023/01/15 12:58:10;;;;;;;5.50;0.68;;;6.20;99.90;;;;;;5037283;28;20025;-75
2023/01/15 13:00:41;;;;;;;5.10;0.20;;;6.20;99.90;;;;;;5036911;28;20094;-75
2023/01/15 13:03:12;;;;;;;6.53;0.45;;;6.20;99.90;;;;;;5037120;28;20021;-75
2023/01/15 13:06:01;;;;;;;6.75;0.38;;;6.20;99.90;;;;;;5019352;28;20032;-75
2023/01/15 13:08:56;;;;;;;11.32;0.98;;;6.30;99.90;;;;;;5036785;28;20033;-75
2023/01/15 13:11:21;;;;;;;7.50;0.50;;;6.40;99.90;;;;;;5018438;28;20487;-75
2023/01/15 13:13:56;;;;;;;11.30;0.30;;;6.60;99.90;;;;;;5018008;28;20032;-75
2023/01/15 13:16:52;;;;;;;3.45;0.00;;;6.80;99.90;;;;;;5018864;28;20369;-75
2023/01/15 13:19:45;;;;;;;17.90;0.85;;;6.90;99.90;;;;;;5037927;28;20534;-74
2023/01/15 13:22:19;;;;;;;2.55;0.13;;;6.90;99.90;;;;;;5037535;28;20018;-74
2023/01/15 13:24:59;;;;;;;3.92;0.50;;;7.00;99.90;;;;;;5036818;28;20022;-74
2023/01/15 13:27:53;;;;;;;9.75;0.73;;;6.90;99.90;;;;;;5018731;28;20021;-74
2023/01/15 13:30:27;;;;;;;5.15;0.40;;;7.00;99.90;;;;;;5036483;28;20021;-74
2023/01/15 13:33:04;;;;;;;7.43;0.60;;;7.00;99.90;;;;;;5036359;28;20091;-74
2023/01/15 13:35:34;;;;;;;4.55;0.00;;;7.00;99.90;;;;;;5019250;28;20499;-75
2023/01/15 13:38:07;;;;;;;9.38;0.10;;;7.00;99.90;;;;;;5037384;28;20021;-75
2023/01/15 13:40:37;;;;;;;2.97;0.32;;;7.00;99.90;;;;;;5036134;28;20052;-75
2023/01/15 13:43:05;;;;;;;7.40;0.98;;;7.00;99.90;;;;;;5018598;28;20564;-73
2023/01/15 13:45:41;;;;;;;9.05;0.20;;;7.00;99.90;;;;;;5018376;28;20025;-75
2023/01/15 13:48:14;;;;;;;5.80;0.50;;;7.00;99.90;;;;;;5018516;28;20030;-75
2023/01/15 13:50:56;;;;;;;12.25;0.95;;;6.90;99.90;;;;;;5018636;28;20045;-75
2023/01/15 13:53:21;;;;;;;4.72;0.20;;;7.00;99.90;;;;;;5019155;28;20025;-76
2023/01/15 13:56:01;;;;;;;5.72;0.32;;;7.00;99.90;;;;;;5036233;28;20507;-77
2023/01/15 13:58:30;;;;;;;11.25;1.00;;;7.00;99.90;;;;;;5018023;28;20033;-78
2023/01/15 14:01:06;;;;;;;9.38;0.57;;;6.90;99.90;;;;;;5036533;28;20029;-77
2023/01/15 14:03:36;;;;;;;14.25;0.15;;;6.90;99.90;;;;;;5036796;28;20022;-77
2023/01/15 14:06:05;;;;;;;5.07;0.00;;;6.90;99.90;;;;;;5036305;28;20026;-76
2023/01/15 14:08:43;;;;;;;6.90;0.70;;;6.90;99.90;;;;;;5036079;28;20080;-76
2023/01/15 14:11:34;;;;;;;6.75;1.05;;;6.90;99.90;;;;;;5017726;28;20017;-76
2023/01/15 14:14:32;;;;;;;7.63;0.35;;;6.90;99.90;;;;;;5035119;28;20091;-77
2023/01/15 14:17:19;;;;;;;5.82;0.65;;;7.00;99.90;;;;;;5035140;28;20025;-77
2023/01/15 14:20:16;;;;;;;8.93;0.50;;;7.00;99.90;;;;;;5017780;28;20026;-76
2023/01/15 14:23:20;;;;;;;4.38;0.10;;;7.00;99.90;;;;;;5017784;28;20067;-76
2023/01/15 14:25:48;;;;;;;7.93;0.03;;;6.90;99.90;;;;;;5034758;28;20017;-76
2023/01/15 14:28:36;;;;;;;3.90;0.40;;;6.90;99.90;;;;;;5035471;28;20032;-76
2023/01/15 14:31:25;;;;;;;7.20;0.10;;;6.80;99.90;;;;;;5035121;28;20076;-76
2023/01/15 14:33:53;;;;;;;10.50;0.70;;;6.70;99.90;;;;;;5018401;28;20026;-77
2023/01/15 14:36:38;;;;;;;9.02;0.40;;;6.80;99.90;;;;;;5035311;28;20083;-77
2023/01/15 14:39:17;;;;;;;12.02;0.63;;;6.80;99.90;;;;;;5035011;28;20097;-77
2023/01/15 14:44:32;;;;;;;3.35;0.10;;;6.80;99.90;;;;;;5035072;28;20431;-76
2023/01/15 14:47:01;;;;;;;5.40;0.08;;;6.80;99.90;;;;;;5035042;28;20022;-76
2023/01/15 14:49:41;;;;;;;7.82;0.47;;;6.80;99.90;;;;;;5017531;28;20084;-77
2023/01/15 14:52:07;;;;;;;10.18;0.57;;;6.80;99.90;;;;;;5035399;28;20028;-77
2023/01/15 14:54:36;;;;;;;4.97;0.10;;;6.90;99.90;;;;;;5035858;28;20026;-77
2023/01/15 14:57:06;;;;;;;13.18;1.85;;;6.80;99.90;;;;;;5017288;28;20021;-75
2023/01/15 14:59:52;;;;;;;7.35;0.35;;;6.90;99.90;;;;;;5035625;28;20063;-76
2023/01/15 15:02:23;;;;;;;10.93;0.93;;;6.90;99.90;;;;;;5034540;28;20075;-75
2023/01/15 15:04:52;;;;;;;6.30;1.05;;;7.00;99.90;;;;;;5016428;28;20032;-76
2023/01/15 15:07:32;;;;;;;;;;;6.90;99.90;;;;;;5033673;28;20103;-76
2023/01/15 15:10:16;;;;;;;11.88;0.22;;;6.90;99.90;;;;;;5016432;28;19908;-75
2023/01/15 15:13:05;;;;;;;5.30;0.00;;;6.90;99.90;;;;;;5034640;28;20063;-75
2023/01/15 15:16:05;;;;;;;2.63;0.10;;;6.90;99.90;;;;;;5017032;28;20033;-75
2023/01/15 15:18:40;;;;;;;7.03;0.20;;;6.80;99.90;;;;;;5035460;28;20026;-75
2023/01/15 15:21:15;;;;;;;8.95;0.10;;;6.80;99.90;;;;;;5034219;28;20089;-75
2023/01/15 15:23:50;;;;;;;7.32;0.47;;;6.70;99.90;;;;;;5034268;28;20013;-75
2023/01/15 15:26:27;;;;;;;12.77;2.17;;;6.70;99.90;;;;;;5034137;28;20492;-75
2023/01/15 15:29:10;;;;;;;10.10;1.60;;;6.70;99.90;;;;;;5015875;28;20419;-75
2023/01/15 15:31:43;;;;;;;9.73;0.77;;;6.70;99.90;;;;;;5016116;28;20120;-79
2023/01/15 15:34:28;;;;;;;8.25;0.30;;;6.70;99.90;;;;;;5035330;28;20034;-82
2023/01/15 15:36:57;;;;;;;11.40;0.75;;;6.80;99.90;;;;;;5021344;28;20044;-80
2023/01/15 15:39:41;;;;;;;2.50;0.38;;;6.70;99.90;;;;;;5022256;28;20480;-79
2023/01/15 15:50:34;;;;;;;10.77;0.20;;;6.80;99.90;;;;;;5039279;28;20036;-78
2023/01/15 15:53:05;;;;;;;4.68;0.20;;;6.80;99.90;;;;;;5038857;28;20100;-74
2023/01/15 15:55:41;;;;;;;2.85;0.32;;;6.90;99.90;;;;;;5020130;28;20076;-76
2023/01/15 15:58:10;;;;;;;4.35;0.40;;;7.70;99.90;;;;;;5038404;28;20032;-74
2023/01/15 16:00:40;;;;;;;4.20;0.68;;;6.80;99.90;;;;;;5038397;28;20021;-74
2023/01/15 16:03:16;;;;;;;5.53;0.45;;;6.80;99.90;;;;;;5020317;28;20052;-74
2023/01/15 16:05:45;;;;;;;5.10;0.08;;;6.80;99.90;;;;;;5020257;28;20049;-74
2023/01/15 16:08:19;;;;;;;8.65;0.22;;;6.70;99.90;;;;;;5037775;28;20022;-74
2023/01/15 16:10:51;;;;;;;6.60;0.95;;;6.70;99.90;;;;;;5021458;28;20376;-74
2023/01/15 16:13:38;;;;;;;1.42;0.10;;;6.60;99.90;;;;;;5038209;28;20121;-74
2023/01/15 16:16:07;;;;;;;7.40;0.13;;;6.60;99.90;;;;;;5038216;28;20025;-73
2023/01/15 16:18:39;;;;;;;6.00;0.47;;;6.60;99.90;;;;;;5037478;28;20452;-74
2023/01/15 16:21:07;;;;;;;5.38;0.00;;;6.60;99.90;;;;;;5037708;28;20056;-74
2023/01/15 16:23:32;;;;;;;6.00;0.20;;;6.50;99.90;;;;;;5038144;28;20025;-74
2023/01/15 16:26:00;;;;;;;3.40;0.20;;;6.20;99.90;;;;;;5019955;28;20029;-74
2023/01/15 16:28:42;;;;;;;1.27;0.10;;;5.90;99.90;;;;;;5020159;28;20025;-74
2023/01/15 16:31:08;;;;;;;3.53;0.30;;;5.70;99.90;;;;;;5020123;28;20044;-74
2023/01/15 16:33:36;;;;;;;3.15;0.00;;;5.30;99.90;;;;;;5020302;28;20025;-75
2023/01/15 16:36:06;;;;;;;3.35;0.17;;;5.00;99.90;;;;;;5037208;28;20111;-75
2023/01/15 16:38:35;;;;;;;3.97;0.15;;;4.90;99.90;;;;;;5037033;28;20024;-74
2023/01/15 16:41:04;;;;;;;2.40;0.10;;;4.80;99.90;;;;;;5019930;28;20022;-74
2023/01/15 16:43:30;;;;;;;7.13;0.10;;;4.70;99.90;;;;;;5036999;28;20548;-74
2023/01/15 16:46:05;;;;;;;8.55;0.95;;;4.70;99.90;;;;;;5037267;28;20439;-74
2023/01/15 16:48:44;;;;;;;1.20;0.00;;;4.90;99.90;;;;;;5036498;28;20017;-74
2023/01/15 16:51:29;;;;;;;8.43;0.52;;;4.90;99.90;;;;;;5037491;28;20025;-74
2023/01/15 16:53:56;;;;;;;7.05;0.45;;;5.00;99.90;;;;;;5036884;28;20105;-74
2023/01/15 16:56:36;;;;;;;5.53;0.45;;;5.20;99.90;;;;;;5037702;28;20021;-74
2023/01/15 16:59:39;;;;;;;4.45;0.15;;;5.30;99.90;;;;;;5036864;28;20388;-74
2023/01/15 17:02:19;;;;;;;5.32;0.22;;;5.50;99.90;;;;;;5036610;28;20080;-73
2023/01/15 17:04:45;;;;;;;8.50;0.28;;;5.50;99.90;;;;;;5018800;28;20112;-72
2023/01/15 17:07:21;;;;;;;3.97;0.57;;;5.50;99.90;;;;;;5018727;28;20036;-73
2023/01/15 17:09:54;;;;;;;3.92;0.20;;;5.50;99.90;;;;;;5018653;28;20418;-73
2023/01/15 17:12:30;;;;;;;3.83;0.08;;;5.50;99.90;;;;;;5036448;28;20045;-73
2023/01/15 17:15:18;;;;;;;5.95;0.47;;;5.50;99.90;;;;;;5018999;28;20025;-72
2023/01/15 17:17:54;;;;;;;1.33;0.00;;;5.50;99.90;;;;;;5018708;28;20025;-73
2023/01/15 17:20:25;;;;;;;13.75;0.85;;;5.50;99.90;;;;;;5036375;28;20030;-72
2023/01/15 17:22:52;;;;;;;8.77;0.30;;;5.50;99.90;;;;;;5036353;28;20527;-73
2023/01/15 17:25:26;;;;;;;6.78;0.73;;;5.40;99.90;;;;;;5018460;28;20036;-73
2023/01/15 17:27:53;;;;;;;6.70;0.80;;;5.40;99.90;;;;;;5035857;28;20116;-73
2023/01/15 17:30:19;;;;;;;3.38;0.25;;;5.40;99.90;;;;;;5035996;28;20017;-73
2023/01/15 17:32:46;;;;;;;2.05;0.20;;;5.40;99.90;;;;;;5017635;28;20025;-73
2023/01/15 17:35:22;;;;;;;4.15;0.00;;;5.40;99.90;;;;;;5035300;28;20029;-73
2023/01/15 17:37:48;;;;;;;5.05;0.25;;;5.40;99.90;;;;;;5035893;28;20049;-73
2023/01/15 17:40:14;;;;;;;3.75;0.05;;;5.40;99.90;;;;;;5035346;28;20465;-73
2023/01/15 17:42:39;;;;;;;3.50;0.03;;;5.40;99.90;;;;;;5035487;28;20469;-73
2023/01/15 17:45:05;;;;;;;13.57;2.40;;;5.40;99.90;;;;;;5035682;28;20052;-73
2023/01/15 17:47:31;;;;;;;7.75;0.30;;;5.30;99.90;;;;;;5035994;28;20025;-73
2023/01/15 17:49:56;;;;;;;6.93;0.20;;;5.40;99.90;;;;;;5017993;28;20026;-73
2023/01/15 17:52:22;;;;;;;4.13;0.52;;;5.40;99.90;;;;;;5018382;28;20112;-73
2023/01/15 18:05:47;;;;;;;6.07;0.10;;;5.40;99.90;;;;;;5032909;28;20519;-76
2023/01/15 18:08:14;;;;;;;4.30;0.65;;;5.40;99.90;;;;;;5023376;28;20088;-77
2023/01/15 18:10:39;;;;;;;5.72;0.50;;;5.30;99.90;;;;;;5027766;28;20085;-77
2023/01/15 18:13:07;;;;;;;5.80;0.20;;;;;;;;;;5035669;28;20068;-77
2023/01/15 18:15:32;;;;;;;5.32;0.10;;;5.30;99.90;;;;;;5032806;28;20026;-77
2023/01/15 18:17:58;;;;;;;2.88;0.10;;;5.30;99.90;;;;;;5035107;28;20047;-77
2023/01/15 18:20:24;;;;;;;1.42;0.10;;;5.30;99.90;;;;;;5017265;28;20044;-77
2023/01/15 18:22:49;;;;;;;6.10;0.25;;;5.20;99.90;;;;;;5035158;28;20048;-77
2023/01/15 18:25:15;;;;;;;3.38;0.28;;;5.20;99.90;;;;;;5034415;28;20096;-76
2023/01/15 18:27:44;;;;;;;9.18;0.40;;;5.60;99.90;;;;;;5017152;28;20481;-77
2023/01/15 18:30:11;;;;;;;4.70;0.10;;;5.20;99.90;;;;;;5034255;28;20061;-77
2023/01/15 18:32:37;;;;;;;3.50;0.08;;;5.30;99.90;;;;;;5034658;28;20029;-77
2023/01/15 18:35:03;;;;;;;5.85;0.40;;;5.20;99.90;;;;;;5016610;28;20105;-77
2023/01/15 18:37:29;;;;;;;5.85;0.10;;;5.10;99.90;;;;;;5034771;28;20447;-77
2023/01/15 18:39:54;;;;;;;2.15;0.10;;;5.20;99.90;;;;;;5016749;28;20013;-77
2023/01/15 18:47:52;;;;;;;7.07;0.45;;;5.30;99.90;;;;;;5035409;28;20040;-78
2023/01/15 18:50:17;;;;;;;0.98;0.00;;;5.20;99.90;;;;;;5032264;28;20033;-76
2023/01/15 18:52:56;;;;;;;4.35;0.30;;;5.10;99.90;;;;;;5012809;28;20025;-77
2023/01/15 18:55:27;;;;;;;2.00;0.00;;;5.10;99.90;;;;;;5032584;28;20021;-77
2023/01/15 18:57:53;;;;;;;1.73;0.00;;;5.10;99.90;;;;;;5013255;28;20024;-77
2023/01/15 19:00:20;;;;;;;5.25;0.05;;;5.10;99.90;;;;;;5024110;28;20053;-77
2023/01/15 19:02:46;;;;;;;5.82;0.20;;;5.00;99.90;;;;;;5010550;28;20021;-76
2023/01/15 19:05:14;;;;;;;4.22;0.15;;;5.00;99.90;;;;;;5034593;28;20048;-75
2023/01/15 19:07:42;;;;;;;1.13;0.10;;;5.00;99.90;;;;;;5034362;28;20032;-76
2023/01/15 19:10:08;;;;;;;5.13;0.00;;;4.90;99.90;;;;;;5031475;28;20116;-76
2023/01/15 19:12:34;;;;;;;0.55;0.00;;;4.90;99.90;;;;;;5015874;28;20030;-76
2023/01/15 19:20:28;;;;;;;0.10;0.00;;;4.90;99.90;;;;;;5034045;28;20033;-77
2023/01/15 19:22:57;;;;;;;0.85;0.10;;;4.90;99.90;;;;;;5033549;28;20026;-77
2023/01/15 19:25:25;;;;;;;0.47;0.00;;;4.90;99.90;;;;;;5020920;28;20034;-77
2023/01/15 19:27:51;;;;;;;2.05;0.00;;;4.90;99.90;;;;;;5027687;28;20038;-77
2023/01/15 19:30:17;;;;;;;1.30;0.00;;;4.80;99.90;;;;;;5030671;28;20033;-78
2023/01/15 19:32:42;;;;;;;1.42;0.10;;;4.80;99.90;;;;;;5027670;28;20485;-77
2023/01/15 19:35:08;;;;;;;1.60;0.03;;;4.70;99.90;;;;;;5030506;28;20072;-78
2023/01/15 19:37:38;;;;;;;0.77;0.28;;;4.70;99.90;;;;;;5020214;28;20042;-77
2023/01/15 19:40:05;;;;;;;2.83;0.03;;;4.70;99.90;;;;;;5014453;28;20015;-75
2023/01/15 19:50:44;;;;;;;1.20;0.00;;;4.60;99.90;;;;;;5031937;28;20087;-77
2023/01/15 19:53:11;;;;;;;0.00;0.00;;;4.50;99.90;;;;;;5033076;28;20483;-77
2023/01/15 19:55:40;;;;;;;1.33;0.00;;;4.50;99.90;;;;;;5016169;28;20056;-77